Piney Fork, Ohio
Current Conditions -  °F | °C
As of 8:53 PM on Saturday 25 Oct 2014 (Local Time) from KHLG Reporting Station
Clear Clear  
Wind Chill: 60°   Ceiling: Unl
Heat Index: 60°   Visibility: 10mi
Dew Point: 51°   Wind: 15mph
Humidity: 72%   Direction: 230°SW
Pressure: 29.77"   Gusts: 23mph
Location:  40.27°N, 80.83°W
Report Text: KHLG 260053Z AUTO 23013G20KT 10SM CLR 16/11 A2977 RMK AO2 SLP085 T01560106
Loading
Personal Weather Stations






























Interactive Weather Map
Tropical Storm Tracking
New forecast layout! Learn more

10-Day Weather Forecast

Advertisements
Track Severe Weather on mobile